<?xml version="1.0" encoding="utf-8"?>
<gpx creator="Garmin Explore App" version="1.1" xmlns:adv="http://www.garmin.com/xmlschemas/AdventuresExtensions/v1" xmlns:gpxtpx="http://www.garmin.com/xmlschemas/TrackPointExtension/v1" xmlns:gpxtrx="http://www.garmin.com/xmlschemas/GpxExtensions/v3" xmlns:gpxx="http://www.garmin.com/xmlschemas/GpxExtensions/v3" xmlns:trp="http://www.garmin.com/xmlschemas/TripExtensions/v1" xmlns:wptx1="http://www.garmin.com/xmlschemas/WaypointExtension/v1" xmlns:xsi="http://www.w3.org/2001/XMLSchema-instance" xmlns="http://www.topografix.com/GPX/1/1" xsi:schemaLocation="http://www.topografix.com/GPX/1/1 http://www.topografix.com/GPX/1/1/gpx.xsd http://www.garmin.com/xmlschemas/WaypointExtension/v1 http://www8.garmin.com/xmlschemas/WaypointExtensionv1.xsd http://www.garmin.com/xmlschemas/TrackPointExtension/v1 http://www.garmin.com/xmlschemas/TrackPointExtensionv1.xsd http://www.garmin.com/xmlschemas/GpxExtensions/v3 http://www8.garmin.com/xmlschemas/GpxExtensionsv3.xsd http://www.garmin.com/xmlschemas/ActivityExtension/v1 http://www8.garmin.com/xmlschemas/ActivityExtensionv1.xsd http://www.garmin.com/xmlschemas/AdventuresExtensions/v1 http://www8.garmin.com/xmlschemas/AdventuresExtensionv1.xsd http://www.garmin.com/xmlschemas/PressureExtension/v1 http://www.garmin.com/xmlschemas/PressureExtensionv1.xsd">
	<metadata>
		<name>2026-05-03 03:11:29</name>
		<link href="http://www.garmin.com">
			<text>Garmin International</text>
		</link>
		<time>2026-05-03T00:54:50Z</time>
	</metadata>
	<trk>
		<name>2026-05-03 03:11:29</name>
		<extensions>
			<gpxx:TrackExtension>
				<gpxx:DisplayColor>Cyan</gpxx:DisplayColor>
			</gpxx:TrackExtension>
		</extensions>
		<trkseg>
			<trkpt lat="59.73658215999603" lon="30.84444808959961">
				<ele>29.489999771118164</ele>
				<time>2026-05-02T21:31:27Z</time>
			</trkpt>
			<trkpt lat="59.7365757226944" lon="30.844451308250427">
				<ele>29.489999771118164</ele>
				<time>2026-05-02T21:31:28Z</time>
			</trkpt>
			<trkpt lat="59.73657834529877" lon="30.844468593597412">
				<ele>25.93000030517578</ele>
				<time>2026-05-02T21:31:31Z</time>
			</trkpt>
			<trkpt lat="59.73658907413483" lon="30.844475984573364">
				<ele>25.920000076293945</ele>
				<time>2026-05-02T21:31:32Z</time>
			</trkpt>
			<trkpt lat="59.73659932613373" lon="30.844499707221985">
				<ele>27.610000610351562</ele>
				<time>2026-05-02T21:31:34Z</time>
			</trkpt>
			<trkpt lat="59.736613631248474" lon="30.844897866249084">
				<ele>27.420000076293945</ele>
				<time>2026-05-02T21:31:57Z</time>
			</trkpt>
			<trkpt lat="59.73657667636871" lon="30.84530770778656">
				<ele>28.559999465942383</ele>
				<time>2026-05-02T21:32:14Z</time>
			</trkpt>
			<trkpt lat="59.736581206321716" lon="30.84582209587097">
				<ele>30.93000030517578</ele>
				<time>2026-05-02T21:32:35Z</time>
			</trkpt>
			<trkpt lat="59.736611008644104" lon="30.846206784248352">
				<ele>33.709999084472656</ele>
				<time>2026-05-02T21:32:56Z</time>
			</trkpt>
			<trkpt lat="59.736594557762146" lon="30.8461754322052">
				<ele>34.15999984741211</ele>
				<time>2026-05-02T21:32:59Z</time>
			</trkpt>
			<trkpt lat="59.736579060554504" lon="30.84583008289337">
				<ele>36.130001068115234</ele>
				<time>2026-05-02T21:33:16Z</time>
			</trkpt>
			<trkpt lat="59.73657178878784" lon="30.845776557922363">
				<ele>36.2599983215332</ele>
				<time>2026-05-02T21:33:18Z</time>
			</trkpt>
			<trkpt lat="59.736573338508606" lon="30.8456027507782">
				<ele>36.91999816894531</ele>
				<time>2026-05-02T21:33:26Z</time>
			</trkpt>
			<trkpt lat="59.736573219299316" lon="30.845471262931824">
				<ele>37.470001220703125</ele>
				<time>2026-05-02T21:33:30Z</time>
			</trkpt>
			<trkpt lat="59.73657178878784" lon="30.845300316810608">
				<ele>38.36000061035156</ele>
				<time>2026-05-02T21:33:37Z</time>
			</trkpt>
			<trkpt lat="59.736602783203125" lon="30.845142364501953">
				<ele>39.060001373291016</ele>
				<time>2026-05-02T21:33:44Z</time>
			</trkpt>
			<trkpt lat="59.736626625061035" lon="30.844850778579712">
				<ele>40.630001068115234</ele>
				<time>2026-05-02T21:33:58Z</time>
			</trkpt>
			<trkpt lat="59.73664355278015" lon="30.844725608825684">
				<ele>41.439998626708984</ele>
				<time>2026-05-02T21:34:04Z</time>
			</trkpt>
			<trkpt lat="59.73665535449982" lon="30.844473600387573">
				<ele>43.599998474121094</ele>
				<time>2026-05-02T21:34:21Z</time>
			</trkpt>
			<trkpt lat="59.73665225505829" lon="30.844496369361877">
				<ele>46.189998626708984</ele>
				<time>2026-05-02T21:34:39Z</time>
			</trkpt>
			<trkpt lat="59.736645579338074" lon="30.844683051109314">
				<ele>47.150001525878906</ele>
				<time>2026-05-02T21:34:52Z</time>
			</trkpt>
			<trkpt lat="59.736615777015686" lon="30.844806909561157">
				<ele>47.939998626708984</ele>
				<time>2026-05-02T21:34:59Z</time>
			</trkpt>
			<trkpt lat="59.73660480976105" lon="30.845096707344055">
				<ele>48.91999816894531</ele>
				<time>2026-05-02T21:35:11Z</time>
			</trkpt>
			<trkpt lat="59.736621022224426" lon="30.845270037651062">
				<ele>49.22999954223633</ele>
				<time>2026-05-02T21:35:17Z</time>
			</trkpt>
			<trkpt lat="59.736631870269775" lon="30.845652103424072">
				<ele>50.130001068115234</ele>
				<time>2026-05-02T21:35:31Z</time>
			</trkpt>
			<trkpt lat="59.73661208152771" lon="30.846118092536926">
				<ele>50.95000076293945</ele>
				<time>2026-05-02T21:35:50Z</time>
			</trkpt>
			<trkpt lat="59.73660933971405" lon="30.846139430999756">
				<ele>51.08000183105469</ele>
				<time>2026-05-02T21:35:51Z</time>
			</trkpt>
			<trkpt lat="59.73660171031952" lon="30.846156358718872">
				<ele>50.959999084472656</ele>
				<time>2026-05-02T21:35:53Z</time>
			</trkpt>
			<trkpt lat="59.736594557762146" lon="30.846271276474">
				<ele>51.20000076293945</ele>
				<time>2026-05-02T21:35:57Z</time>
			</trkpt>
			<trkpt lat="59.7365927696228" lon="30.846446752548218">
				<ele>51.34000015258789</ele>
				<time>2026-05-02T21:36:05Z</time>
			</trkpt>
			<trkpt lat="59.736571311950684" lon="30.8467435836792">
				<ele>51.66999816894531</ele>
				<time>2026-05-02T21:36:17Z</time>
			</trkpt>
			<trkpt lat="59.73656606674194" lon="30.846802949905396">
				<ele>51.90999984741211</ele>
				<time>2026-05-02T21:36:20Z</time>
			</trkpt>
			<trkpt lat="59.73657047748566" lon="30.84688949584961">
				<ele>51.939998626708984</ele>
				<time>2026-05-02T21:36:25Z</time>
			</trkpt>
			<trkpt lat="59.73654043674469" lon="30.84714984893799">
				<ele>52.0</ele>
				<time>2026-05-02T21:36:34Z</time>
			</trkpt>
			<trkpt lat="59.73660230636597" lon="30.847533464431763">
				<ele>51.470001220703125</ele>
				<time>2026-05-02T21:36:50Z</time>
			</trkpt>
			<trkpt lat="59.736568331718445" lon="30.847890257835388">
				<ele>51.68000030517578</ele>
				<time>2026-05-02T21:37:06Z</time>
			</trkpt>
			<trkpt lat="59.736549973487854" lon="30.84837317466736">
				<ele>52.4900016784668</ele>
				<time>2026-05-02T21:37:23Z</time>
			</trkpt>
			<trkpt lat="59.736549615859985" lon="30.848400831222534">
				<ele>52.65999984741211</ele>
				<time>2026-05-02T21:37:24Z</time>
			</trkpt>
			<trkpt lat="59.73644304275513" lon="30.848753452301025">
				<ele>53.58000183105469</ele>
				<time>2026-05-02T21:37:39Z</time>
			</trkpt>
			<trkpt lat="59.73641216754913" lon="30.848849534988403">
				<ele>54.060001373291016</ele>
				<time>2026-05-02T21:37:44Z</time>
			</trkpt>
			<trkpt lat="59.73630332946777" lon="30.84893834590912">
				<ele>54.650001525878906</ele>
				<time>2026-05-02T21:37:52Z</time>
			</trkpt>
			<trkpt lat="59.73624408245087" lon="30.848976492881775">
				<ele>54.90999984741211</ele>
				<time>2026-05-02T21:37:57Z</time>
			</trkpt>
			<trkpt lat="59.73618829250336" lon="30.84944176673889">
				<ele>56.459999084472656</ele>
				<time>2026-05-02T21:38:17Z</time>
			</trkpt>
			<trkpt lat="59.73614823818207" lon="30.8499094247818">
				<ele>58.439998626708984</ele>
				<time>2026-05-02T21:38:36Z</time>
			</trkpt>
			<trkpt lat="59.736103892326355" lon="30.85039246082306">
				<ele>60.029998779296875</ele>
				<time>2026-05-02T21:38:55Z</time>
			</trkpt>
			<trkpt lat="59.73607683181763" lon="30.85083508491516">
				<ele>61.630001068115234</ele>
				<time>2026-05-02T21:39:13Z</time>
			</trkpt>
			<trkpt lat="59.73604941368103" lon="30.851125597953796">
				<ele>62.88999938964844</ele>
				<time>2026-05-02T21:39:29Z</time>
			</trkpt>
			<trkpt lat="59.7359653711319" lon="30.85127556324005">
				<ele>63.880001068115234</ele>
				<time>2026-05-02T21:39:40Z</time>
			</trkpt>
			<trkpt lat="59.73582065105438" lon="30.851500630378723">
				<ele>64.87999725341797</ele>
				<time>2026-05-02T21:39:55Z</time>
			</trkpt>
			<trkpt lat="59.73562157154083" lon="30.851826786994934">
				<ele>66.43000030517578</ele>
				<time>2026-05-02T21:40:17Z</time>
			</trkpt>
			<trkpt lat="59.735442996025085" lon="30.852145552635193">
				<ele>67.61000061035156</ele>
				<time>2026-05-02T21:40:38Z</time>
			</trkpt>
			<trkpt lat="59.735254883766174" lon="30.85250461101532">
				<ele>69.05999755859375</ele>
				<time>2026-05-02T21:41:02Z</time>
			</trkpt>
			<trkpt lat="59.73504936695099" lon="30.852797627449036">
				<ele>70.12999725341797</ele>
				<time>2026-05-02T21:41:25Z</time>
			</trkpt>
			<trkpt lat="59.73490059375763" lon="30.85304868221283">
				<ele>71.8499984741211</ele>
				<time>2026-05-02T21:41:49Z</time>
			</trkpt>
			<trkpt lat="59.73470687866211" lon="30.853423953056335">
				<ele>72.45999908447266</ele>
				<time>2026-05-02T21:42:11Z</time>
			</trkpt>
			<trkpt lat="59.73458540439606" lon="30.853631377220154">
				<ele>71.36000061035156</ele>
				<time>2026-05-02T21:42:30Z</time>
			</trkpt>
			<trkpt lat="59.73457312583923" lon="30.85365664958954">
				<ele>73.25</ele>
				<time>2026-05-02T21:42:42Z</time>
			</trkpt>
			<trkpt lat="59.73438274860382" lon="30.85381293296814">
				<ele>73.16999816894531</ele>
				<time>2026-05-02T21:43:06Z</time>
			</trkpt>
			<trkpt lat="59.73436677455902" lon="30.85381817817688">
				<ele>73.26000213623047</ele>
				<time>2026-05-02T21:43:07Z</time>
			</trkpt>
			<trkpt lat="59.73429751396179" lon="30.853821396827698">
				<ele>73.16999816894531</ele>
				<time>2026-05-02T21:43:11Z</time>
			</trkpt>
			<trkpt lat="59.734166741371155" lon="30.853906393051147">
				<ele>73.41000366210938</ele>
				<time>2026-05-02T21:43:28Z</time>
			</trkpt>
			<trkpt lat="59.73418617248535" lon="30.854104042053223">
				<ele>73.5</ele>
				<time>2026-05-02T21:43:43Z</time>
			</trkpt>
			<trkpt lat="59.73418629169464" lon="30.85412335395813">
				<ele>73.45999908447266</ele>
				<time>2026-05-02T21:43:45Z</time>
			</trkpt>
			<trkpt lat="59.73422360420227" lon="30.854146599769592">
				<ele>72.62000274658203</ele>
				<time>2026-05-02T21:43:51Z</time>
			</trkpt>
			<trkpt lat="59.73419976234436" lon="30.854222893714905">
				<ele>71.0999984741211</ele>
				<time>2026-05-02T21:44:12Z</time>
			</trkpt>
			<trkpt lat="59.73410642147064" lon="30.854511857032776">
				<ele>69.72000122070312</ele>
				<time>2026-05-02T21:44:33Z</time>
			</trkpt>
			<trkpt lat="59.73402523994446" lon="30.854696393013">
				<ele>68.0</ele>
				<time>2026-05-02T21:44:52Z</time>
			</trkpt>
			<trkpt lat="59.73382878303528" lon="30.854984641075134">
				<ele>67.20999908447266</ele>
				<time>2026-05-02T21:45:14Z</time>
			</trkpt>
			<trkpt lat="59.73361337184906" lon="30.85516059398651">
				<ele>66.4000015258789</ele>
				<time>2026-05-02T21:45:35Z</time>
			</trkpt>
			<trkpt lat="59.733516335487366" lon="30.85534918308258">
				<ele>66.4000015258789</ele>
				<time>2026-05-02T21:45:57Z</time>
			</trkpt>
			<trkpt lat="59.73348784446716" lon="30.85547173023224">
				<ele>65.76000213623047</ele>
				<time>2026-05-02T21:46:13Z</time>
			</trkpt>
			<trkpt lat="59.733399510383606" lon="30.855584740638733">
				<ele>65.8499984741211</ele>
				<time>2026-05-02T21:46:28Z</time>
			</trkpt>
			<trkpt lat="59.73324990272522" lon="30.855616211891174">
				<ele>64.88999938964844</ele>
				<time>2026-05-02T21:46:48Z</time>
			</trkpt>
			<trkpt lat="59.73323142528534" lon="30.85562574863434">
				<ele>65.76000213623047</ele>
				<time>2026-05-02T21:46:52Z</time>
			</trkpt>
			<trkpt lat="59.73319339752197" lon="30.855718970298767">
				<ele>65.70999908447266</ele>
				<time>2026-05-02T21:47:21Z</time>
			</trkpt>
			<trkpt lat="59.73310101032257" lon="30.85572373867035">
				<ele>65.26000213623047</ele>
				<time>2026-05-02T21:47:47Z</time>
			</trkpt>
			<trkpt lat="59.733100056648254" lon="30.855722784996033">
				<ele>65.37000274658203</ele>
				<time>2026-05-02T21:47:48Z</time>
			</trkpt>
			<trkpt lat="59.73305380344391" lon="30.8559672832489">
				<ele>63.06999969482422</ele>
				<time>2026-05-02T21:48:16Z</time>
			</trkpt>
			<trkpt lat="59.73307275772095" lon="30.855960607528687">
				<ele>62.54999923706055</ele>
				<time>2026-05-02T21:48:37Z</time>
			</trkpt>
			<trkpt lat="59.73319494724274" lon="30.855838894844055">
				<ele>61.540000915527344</ele>
				<time>2026-05-02T21:49:07Z</time>
			</trkpt>
			<trkpt lat="59.73320233821869" lon="30.85586905479431">
				<ele>60.79999923706055</ele>
				<time>2026-05-02T21:49:31Z</time>
			</trkpt>
			<trkpt lat="59.73312270641327" lon="30.85586643218994">
				<ele>58.130001068115234</ele>
				<time>2026-05-02T21:50:06Z</time>
			</trkpt>
			<trkpt lat="59.7331063747406" lon="30.855864644050598">
				<ele>55.5</ele>
				<time>2026-05-02T21:50:12Z</time>
			</trkpt>
			<trkpt lat="59.73310887813568" lon="30.855849742889404">
				<ele>52.41999816894531</ele>
				<time>2026-05-02T21:50:29Z</time>
			</trkpt>
			<trkpt lat="59.733113408088684" lon="30.855849742889404">
				<ele>52.41999816894531</ele>
				<time>2026-05-02T21:50:30Z</time>
			</trkpt>
			<trkpt lat="59.73312151432037" lon="30.85584270954132">
				<ele>54.0</ele>
				<time>2026-05-02T21:50:37Z</time>
			</trkpt>
			<trkpt lat="59.73313343524933" lon="30.855834364891052">
				<ele>52.880001068115234</ele>
				<time>2026-05-02T21:50:45Z</time>
			</trkpt>
			<trkpt lat="59.733174085617065" lon="30.855826377868652">
				<ele>49.900001525878906</ele>
				<time>2026-05-02T21:51:07Z</time>
			</trkpt>
			<trkpt lat="59.73314118385315" lon="30.85591471195221">
				<ele>49.099998474121094</ele>
				<time>2026-05-02T21:51:21Z</time>
			</trkpt>
			<trkpt lat="59.733104825019836" lon="30.856064915657043">
				<ele>48.40999984741211</ele>
				<time>2026-05-02T21:51:40Z</time>
			</trkpt>
			<trkpt lat="59.73292863368988" lon="30.856157779693604">
				<ele>47.869998931884766</ele>
				<time>2026-05-02T21:52:03Z</time>
			</trkpt>
			<trkpt lat="59.73288142681122" lon="30.85624670982361">
				<ele>47.970001220703125</ele>
				<time>2026-05-02T21:52:27Z</time>
			</trkpt>
			<trkpt lat="59.73287034034729" lon="30.85635006427765">
				<ele>48.11000061035156</ele>
				<time>2026-05-02T21:52:57Z</time>
			</trkpt>
			<trkpt lat="59.73289477825165" lon="30.856338262557983">
				<ele>48.68000030517578</ele>
				<time>2026-05-02T21:53:26Z</time>
			</trkpt>
			<trkpt lat="59.73288607597351" lon="30.856309413909912">
				<ele>48.880001068115234</ele>
				<time>2026-05-02T21:53:56Z</time>
			</trkpt>
			<trkpt lat="59.73288714885712" lon="30.856303930282593">
				<ele>49.0</ele>
				<time>2026-05-02T21:54:25Z</time>
			</trkpt>
			<trkpt lat="59.732861399650574" lon="30.856343030929565">
				<ele>48.56999969482422</ele>
				<time>2026-05-02T21:54:56Z</time>
			</trkpt>
			<trkpt lat="59.73283362388611" lon="30.85636842250824">
				<ele>46.380001068115234</ele>
				<time>2026-05-02T21:55:24Z</time>
			</trkpt>
			<trkpt lat="59.73275089263916" lon="30.85632574558258">
				<ele>44.529998779296875</ele>
				<time>2026-05-02T21:55:44Z</time>
			</trkpt>
			<trkpt lat="59.73263227939606" lon="30.85613489151001">
				<ele>44.56999969482422</ele>
				<time>2026-05-02T21:56:05Z</time>
			</trkpt>
			<trkpt lat="59.73255801200867" lon="30.85607647895813">
				<ele>44.58000183105469</ele>
				<time>2026-05-02T21:56:22Z</time>
			</trkpt>
			<trkpt lat="59.73244309425354" lon="30.85605216026306">
				<ele>44.650001525878906</ele>
				<time>2026-05-02T21:56:41Z</time>
			</trkpt>
			<trkpt lat="59.732322216033936" lon="30.855855107307434">
				<ele>44.9900016784668</ele>
				<time>2026-05-02T21:57:01Z</time>
			</trkpt>
			<trkpt lat="59.732282400131226" lon="30.855891466140747">
				<ele>45.27000045776367</ele>
				<time>2026-05-02T21:57:18Z</time>
			</trkpt>
			<trkpt lat="59.732173800468445" lon="30.855962872505188">
				<ele>45.709999084472656</ele>
				<time>2026-05-02T21:57:37Z</time>
			</trkpt>
			<trkpt lat="59.732054471969604" lon="30.85604178905487">
				<ele>46.029998779296875</ele>
				<time>2026-05-02T21:57:58Z</time>
			</trkpt>
			<trkpt lat="59.73191857337952" lon="30.856189966201782">
				<ele>46.43000030517578</ele>
				<time>2026-05-02T21:58:23Z</time>
			</trkpt>
			<trkpt lat="59.731900453567505" lon="30.85621428489685">
				<ele>46.56999969482422</ele>
				<time>2026-05-02T21:58:26Z</time>
			</trkpt>
			<trkpt lat="59.731828927993774" lon="30.856285333633423">
				<ele>46.900001525878906</ele>
				<time>2026-05-02T21:58:56Z</time>
			</trkpt>
			<trkpt lat="59.73183739185333" lon="30.856298327445984">
				<ele>46.790000915527344</ele>
				<time>2026-05-02T21:58:59Z</time>
			</trkpt>
			<trkpt lat="59.73179626464844" lon="30.856478571891785">
				<ele>46.61000061035156</ele>
				<time>2026-05-02T21:59:18Z</time>
			</trkpt>
			<trkpt lat="59.73168873786926" lon="30.856529355049133">
				<ele>46.9900016784668</ele>
				<time>2026-05-02T21:59:38Z</time>
			</trkpt>
			<trkpt lat="59.731648087501526" lon="30.856574177742004">
				<ele>47.189998626708984</ele>
				<time>2026-05-02T21:59:59Z</time>
			</trkpt>
			<trkpt lat="59.73159921169281" lon="30.85662007331848">
				<ele>47.529998779296875</ele>
				<time>2026-05-02T22:00:20Z</time>
			</trkpt>
			<trkpt lat="59.73154580593109" lon="30.856703281402588">
				<ele>47.81999969482422</ele>
				<time>2026-05-02T22:00:41Z</time>
			</trkpt>
			<trkpt lat="59.73149013519287" lon="30.856807470321655">
				<ele>48.08000183105469</ele>
				<time>2026-05-02T22:01:04Z</time>
			</trkpt>
			<trkpt lat="59.7314727306366" lon="30.85678482055664">
				<ele>48.290000915527344</ele>
				<time>2026-05-02T22:01:13Z</time>
			</trkpt>
			<trkpt lat="59.73143208026886" lon="30.856850147247314">
				<ele>48.709999084472656</ele>
				<time>2026-05-02T22:01:36Z</time>
			</trkpt>
			<trkpt lat="59.731310963630676" lon="30.856863737106323">
				<ele>49.11000061035156</ele>
				<time>2026-05-02T22:01:57Z</time>
			</trkpt>
			<trkpt lat="59.73121678829193" lon="30.856719851493835">
				<ele>49.2599983215332</ele>
				<time>2026-05-02T22:02:12Z</time>
			</trkpt>
			<trkpt lat="59.73113441467285" lon="30.856712460517883">
				<ele>49.599998474121094</ele>
				<time>2026-05-02T22:02:19Z</time>
			</trkpt>
			<trkpt lat="59.73091268539429" lon="30.85667073726654">
				<ele>50.08000183105469</ele>
				<time>2026-05-02T22:02:36Z</time>
			</trkpt>
			<trkpt lat="59.730802059173584" lon="30.85678791999817">
				<ele>51.310001373291016</ele>
				<time>2026-05-02T22:02:55Z</time>
			</trkpt>
			<trkpt lat="59.730783104896545" lon="30.856804490089417">
				<ele>49.25</ele>
				<time>2026-05-02T22:02:58Z</time>
			</trkpt>
			<trkpt lat="59.73076295852661" lon="30.85682451725006">
				<ele>51.79999923706055</ele>
				<time>2026-05-02T22:03:03Z</time>
			</trkpt>
			<trkpt lat="59.73068606853485" lon="30.856999039649963">
				<ele>51.75</ele>
				<time>2026-05-02T22:03:23Z</time>
			</trkpt>
			<trkpt lat="59.73063051700592" lon="30.857134103775024">
				<ele>52.5</ele>
				<time>2026-05-02T22:03:54Z</time>
			</trkpt>
			<trkpt lat="59.730592489242554" lon="30.857147574424744">
				<ele>52.880001068115234</ele>
				<time>2026-05-02T22:04:19Z</time>
			</trkpt>
			<trkpt lat="59.730541944503784" lon="30.857163786888123">
				<ele>52.439998626708984</ele>
				<time>2026-05-02T22:04:48Z</time>
			</trkpt>
			<trkpt lat="59.730515003204346" lon="30.857195377349854">
				<ele>50.66999816894531</ele>
				<time>2026-05-02T22:05:02Z</time>
			</trkpt>
			<trkpt lat="59.730459213256836" lon="30.85718858242035">
				<ele>48.95000076293945</ele>
				<time>2026-05-02T22:05:23Z</time>
			</trkpt>
			<trkpt lat="59.73046612739563" lon="30.857298970222473">
				<ele>48.779998779296875</ele>
				<time>2026-05-02T22:05:37Z</time>
			</trkpt>
			<trkpt lat="59.73038685321808" lon="30.857487320899963">
				<ele>49.099998474121094</ele>
				<time>2026-05-02T22:06:00Z</time>
			</trkpt>
			<trkpt lat="59.73024785518646" lon="30.85769534111023">
				<ele>48.970001220703125</ele>
				<time>2026-05-02T22:06:22Z</time>
			</trkpt>
			<trkpt lat="59.73022782802582" lon="30.857694268226624">
				<ele>49.0099983215332</ele>
				<time>2026-05-02T22:06:26Z</time>
			</trkpt>
			<trkpt lat="59.73011517524719" lon="30.8577823638916">
				<ele>49.529998779296875</ele>
				<time>2026-05-02T22:06:46Z</time>
			</trkpt>
			<trkpt lat="59.730111956596375" lon="30.857785940170288">
				<ele>49.58000183105469</ele>
				<time>2026-05-02T22:06:47Z</time>
			</trkpt>
			<trkpt lat="59.72993981838226" lon="30.857844829559326">
				<ele>50.08000183105469</ele>
				<time>2026-05-02T22:07:12Z</time>
			</trkpt>
			<trkpt lat="59.72992384433746" lon="30.857841730117798">
				<ele>50.59000015258789</ele>
				<time>2026-05-02T22:07:15Z</time>
			</trkpt>
			<trkpt lat="59.72970366477966" lon="30.857983589172363">
				<ele>51.040000915527344</ele>
				<time>2026-05-02T22:07:40Z</time>
			</trkpt>
			<trkpt lat="59.729639172554016" lon="30.85801136493683">
				<ele>51.439998626708984</ele>
				<time>2026-05-02T22:07:51Z</time>
			</trkpt>
			<trkpt lat="59.72961139678955" lon="30.85803484916687">
				<ele>51.75</ele>
				<time>2026-05-02T22:07:58Z</time>
			</trkpt>
			<trkpt lat="59.729496479034424" lon="30.85809099674225">
				<ele>52.619998931884766</ele>
				<time>2026-05-02T22:08:21Z</time>
			</trkpt>
			<trkpt lat="59.729469776153564" lon="30.858110189437866">
				<ele>53.09000015258789</ele>
				<time>2026-05-02T22:08:26Z</time>
			</trkpt>
			<trkpt lat="59.72925817966461" lon="30.858343601226807">
				<ele>53.709999084472656</ele>
				<time>2026-05-02T22:08:53Z</time>
			</trkpt>
			<trkpt lat="59.72914516925812" lon="30.858248829841614">
				<ele>53.310001373291016</ele>
				<time>2026-05-02T22:09:14Z</time>
			</trkpt>
			<trkpt lat="59.729074478149414" lon="30.85829496383667">
				<ele>54.029998779296875</ele>
				<time>2026-05-02T22:09:26Z</time>
			</trkpt>
			<trkpt lat="59.7289822101593" lon="30.85851490497589">
				<ele>54.36000061035156</ele>
				<time>2026-05-02T22:09:53Z</time>
			</trkpt>
			<trkpt lat="59.72894859313965" lon="30.858468413352966">
				<ele>55.47999954223633</ele>
				<time>2026-05-02T22:10:21Z</time>
			</trkpt>
			<trkpt lat="59.728955149650574" lon="30.858457326889038">
				<ele>55.4900016784668</ele>
				<time>2026-05-02T22:10:24Z</time>
			</trkpt>
			<trkpt lat="59.72890090942383" lon="30.85860514640808">
				<ele>56.81999969482422</ele>
				<time>2026-05-02T22:10:55Z</time>
			</trkpt>
			<trkpt lat="59.72894859313965" lon="30.85859513282776">
				<ele>57.099998474121094</ele>
				<time>2026-05-02T22:11:08Z</time>
			</trkpt>
			<trkpt lat="59.728986740112305" lon="30.858478307724">
				<ele>57.38999938964844</ele>
				<time>2026-05-02T22:11:38Z</time>
			</trkpt>
			<trkpt lat="59.728962779045105" lon="30.858457684516907">
				<ele>54.220001220703125</ele>
				<time>2026-05-02T22:12:03Z</time>
			</trkpt>
			<trkpt lat="59.728928208351135" lon="30.85849094390869">
				<ele>51.349998474121094</ele>
				<time>2026-05-02T22:12:32Z</time>
			</trkpt>
			<trkpt lat="59.72885000705719" lon="30.858652472496033">
				<ele>50.369998931884766</ele>
				<time>2026-05-02T22:12:54Z</time>
			</trkpt>
			<trkpt lat="59.728811144828796" lon="30.85884392261505">
				<ele>50.4900016784668</ele>
				<time>2026-05-02T22:13:14Z</time>
			</trkpt>
			<trkpt lat="59.72887599468231" lon="30.85899245738983">
				<ele>49.40999984741211</ele>
				<time>2026-05-02T22:13:35Z</time>
			</trkpt>
			<trkpt lat="59.729010462760925" lon="30.85878610610962">
				<ele>48.54999923706055</ele>
				<time>2026-05-02T22:13:58Z</time>
			</trkpt>
			<trkpt lat="59.72916769981384" lon="30.85863697528839">
				<ele>47.68000030517578</ele>
				<time>2026-05-02T22:14:18Z</time>
			</trkpt>
			<trkpt lat="59.72917687892914" lon="30.8586323261261">
				<ele>47.689998626708984</ele>
				<time>2026-05-02T22:14:19Z</time>
			</trkpt>
			<trkpt lat="59.7293039560318" lon="30.858526587486267">
				<ele>47.72999954223633</ele>
				<time>2026-05-02T22:14:38Z</time>
			</trkpt>
			<trkpt lat="59.72939443588257" lon="30.858468770980835">
				<ele>47.400001525878906</ele>
				<time>2026-05-02T22:15:00Z</time>
			</trkpt>
			<trkpt lat="59.72945177555084" lon="30.858492493629456">
				<ele>47.560001373291016</ele>
				<time>2026-05-02T22:15:13Z</time>
			</trkpt>
			<trkpt lat="59.72955787181854" lon="30.858524322509766">
				<ele>43.0</ele>
				<time>2026-05-02T22:15:31Z</time>
			</trkpt>
			<trkpt lat="59.72957217693329" lon="30.8585422039032">
				<ele>46.119998931884766</ele>
				<time>2026-05-02T22:15:35Z</time>
			</trkpt>
			<trkpt lat="59.72956442832947" lon="30.858643054962158">
				<ele>45.560001373291016</ele>
				<time>2026-05-02T22:15:50Z</time>
			</trkpt>
			<trkpt lat="59.729543805122375" lon="30.858692526817322">
				<ele>40.380001068115234</ele>
				<time>2026-05-02T22:15:57Z</time>
			</trkpt>
			<trkpt lat="59.72953391075134" lon="30.858707427978516">
				<ele>44.040000915527344</ele>
				<time>2026-05-02T22:15:59Z</time>
			</trkpt>
			<trkpt lat="59.72952103614807" lon="30.858721613883972">
				<ele>45.2599983215332</ele>
				<time>2026-05-02T22:16:01Z</time>
			</trkpt>
			<trkpt lat="59.72945058345795" lon="30.85880434513092">
				<ele>45.310001373291016</ele>
				<time>2026-05-02T22:16:14Z</time>
			</trkpt>
			<trkpt lat="59.72928178310394" lon="30.85893428325653">
				<ele>45.54999923706055</ele>
				<time>2026-05-02T22:16:38Z</time>
			</trkpt>
			<trkpt lat="59.72920835018158" lon="30.85892426967621">
				<ele>44.0099983215332</ele>
				<time>2026-05-02T22:16:47Z</time>
			</trkpt>
			<trkpt lat="59.72920215129852" lon="30.85891318321228">
				<ele>45.9900016784668</ele>
				<time>2026-05-02T22:16:49Z</time>
			</trkpt>
			<trkpt lat="59.72916030883789" lon="30.858793139457703">
				<ele>46.83000183105469</ele>
				<time>2026-05-02T22:17:06Z</time>
			</trkpt>
			<trkpt lat="59.729119658470154" lon="30.85880446434021">
				<ele>46.11000061035156</ele>
				<time>2026-05-02T22:17:28Z</time>
			</trkpt>
			<trkpt lat="59.729106187820435" lon="30.858851671218872">
				<ele>42.36000061035156</ele>
				<time>2026-05-02T22:17:31Z</time>
			</trkpt>
			<trkpt lat="59.72909712791443" lon="30.85886573791504">
				<ele>42.349998474121094</ele>
				<time>2026-05-02T22:17:32Z</time>
			</trkpt>
			<trkpt lat="59.72907090187073" lon="30.85887920856476">
				<ele>46.060001373291016</ele>
				<time>2026-05-02T22:17:39Z</time>
			</trkpt>
			<trkpt lat="59.72906851768494" lon="30.85888183116913">
				<ele>46.04999923706055</ele>
				<time>2026-05-02T22:17:40Z</time>
			</trkpt>
			<trkpt lat="59.72893047332764" lon="30.85891616344452">
				<ele>45.040000915527344</ele>
				<time>2026-05-02T22:18:01Z</time>
			</trkpt>
			<trkpt lat="59.728819251060486" lon="30.85912024974823">
				<ele>44.93000030517578</ele>
				<time>2026-05-02T22:18:21Z</time>
			</trkpt>
			<trkpt lat="59.72863221168518" lon="30.859387159347534">
				<ele>43.02000045776367</ele>
				<time>2026-05-02T22:18:44Z</time>
			</trkpt>
			<trkpt lat="59.728521943092346" lon="30.859522700309753">
				<ele>44.119998931884766</ele>
				<time>2026-05-02T22:19:06Z</time>
			</trkpt>
			<trkpt lat="59.728519439697266" lon="30.859545826911926">
				<ele>44.540000915527344</ele>
				<time>2026-05-02T22:19:13Z</time>
			</trkpt>
			<trkpt lat="59.728561997413635" lon="30.859768748283386">
				<ele>42.189998626708984</ele>
				<time>2026-05-02T22:19:41Z</time>
			</trkpt>
			<trkpt lat="59.72868800163269" lon="30.85982620716095">
				<ele>42.369998931884766</ele>
				<time>2026-05-02T22:20:02Z</time>
			</trkpt>
			<trkpt lat="59.72873067855835" lon="30.859847903251648">
				<ele>42.439998626708984</ele>
				<time>2026-05-02T22:20:11Z</time>
			</trkpt>
			<trkpt lat="59.728869915008545" lon="30.85987913608551">
				<ele>39.040000915527344</ele>
				<time>2026-05-02T22:20:33Z</time>
			</trkpt>
			<trkpt lat="59.72887313365936" lon="30.859875440597534">
				<ele>41.65999984741211</ele>
				<time>2026-05-02T22:20:34Z</time>
			</trkpt>
			<trkpt lat="59.72889471054077" lon="30.85987091064453">
				<ele>42.29999923706055</ele>
				<time>2026-05-02T22:20:36Z</time>
			</trkpt>
			<trkpt lat="59.729013562202454" lon="30.860024452209473">
				<ele>42.97999954223633</ele>
				<time>2026-05-02T22:21:00Z</time>
			</trkpt>
			<trkpt lat="59.72904562950134" lon="30.86006736755371">
				<ele>43.09000015258789</ele>
				<time>2026-05-02T22:21:05Z</time>
			</trkpt>
			<trkpt lat="59.729103326797485" lon="30.860171675682068">
				<ele>43.16999816894531</ele>
				<time>2026-05-02T22:21:16Z</time>
			</trkpt>
			<trkpt lat="59.72910273075104" lon="30.860326170921326">
				<ele>43.43000030517578</ele>
				<time>2026-05-02T22:21:27Z</time>
			</trkpt>
			<trkpt lat="59.729116320610046" lon="30.86033582687378">
				<ele>43.560001373291016</ele>
				<time>2026-05-02T22:21:29Z</time>
			</trkpt>
			<trkpt lat="59.72913110256195" lon="30.860397577285767">
				<ele>43.93000030517578</ele>
				<time>2026-05-02T22:21:41Z</time>
			</trkpt>
			<trkpt lat="59.729143142700195" lon="30.86056351661682">
				<ele>44.130001068115234</ele>
				<time>2026-05-02T22:21:53Z</time>
			</trkpt>
			<trkpt lat="59.72905707359314" lon="30.86103332042694">
				<ele>45.25</ele>
				<time>2026-05-02T22:22:16Z</time>
			</trkpt>
			<trkpt lat="59.729007720947266" lon="30.861389875411987">
				<ele>46.27000045776367</ele>
				<time>2026-05-02T22:22:34Z</time>
			</trkpt>
			<trkpt lat="59.729031682014465" lon="30.86159920692444">
				<ele>47.54999923706055</ele>
				<time>2026-05-02T22:22:55Z</time>
			</trkpt>
			<trkpt lat="59.72908663749695" lon="30.86168873310089">
				<ele>48.86000061035156</ele>
				<time>2026-05-02T22:23:18Z</time>
			</trkpt>
			<trkpt lat="59.72907900810242" lon="30.86171019077301">
				<ele>49.0099983215332</ele>
				<time>2026-05-02T22:23:21Z</time>
			</trkpt>
			<trkpt lat="59.72906696796417" lon="30.861746191978455">
				<ele>48.97999954223633</ele>
				<time>2026-05-02T22:23:24Z</time>
			</trkpt>
			<trkpt lat="59.72905898094177" lon="30.861608147621155">
				<ele>50.40999984741211</ele>
				<time>2026-05-02T22:23:49Z</time>
			</trkpt>
			<trkpt lat="59.729095339775085" lon="30.861631631851196">
				<ele>51.15999984741211</ele>
				<time>2026-05-02T22:24:09Z</time>
			</trkpt>
			<trkpt lat="59.72911036014557" lon="30.861605763435364">
				<ele>51.45000076293945</ele>
				<time>2026-05-02T22:24:16Z</time>
			</trkpt>
			<trkpt lat="59.72912955284119" lon="30.86160719394684">
				<ele>51.63999938964844</ele>
				<time>2026-05-02T22:24:18Z</time>
			</trkpt>
			<trkpt lat="59.72914659976959" lon="30.86152172088623">
				<ele>51.2400016784668</ele>
				<time>2026-05-02T22:24:36Z</time>
			</trkpt>
			<trkpt lat="59.729169726371765" lon="30.861549139022827">
				<ele>49.5</ele>
				<time>2026-05-02T22:25:05Z</time>
			</trkpt>
			<trkpt lat="59.72929561138153" lon="30.861528992652893">
				<ele>47.849998474121094</ele>
				<time>2026-05-02T22:25:27Z</time>
			</trkpt>
			<trkpt lat="59.72943902015686" lon="30.861490607261658">
				<ele>47.869998931884766</ele>
				<time>2026-05-02T22:25:44Z</time>
			</trkpt>
			<trkpt lat="59.72944748401642" lon="30.86151087284088">
				<ele>48.02000045776367</ele>
				<time>2026-05-02T22:26:00Z</time>
			</trkpt>
			<trkpt lat="59.72942805290222" lon="30.86150860786438">
				<ele>48.630001068115234</ele>
				<time>2026-05-02T22:26:24Z</time>
			</trkpt>
			<trkpt lat="59.72943341732025" lon="30.861531138420105">
				<ele>49.209999084472656</ele>
				<time>2026-05-02T22:26:51Z</time>
			</trkpt>
			<trkpt lat="59.72948658466339" lon="30.861526370048523">
				<ele>49.650001525878906</ele>
				<time>2026-05-02T22:27:16Z</time>
			</trkpt>
			<trkpt lat="59.729496121406555" lon="30.86154568195343">
				<ele>50.56999969482422</ele>
				<time>2026-05-02T22:27:39Z</time>
			</trkpt>
			<trkpt lat="59.72949409484863" lon="30.861555099487305">
				<ele>49.22999954223633</ele>
				<time>2026-05-02T22:27:42Z</time>
			</trkpt>
			<trkpt lat="59.729488372802734" lon="30.86155903339386">
				<ele>50.25</ele>
				<time>2026-05-02T22:28:06Z</time>
			</trkpt>
			<trkpt lat="59.72947144508362" lon="30.86165153980255">
				<ele>50.18000030517578</ele>
				<time>2026-05-02T22:28:32Z</time>
			</trkpt>
			<trkpt lat="59.729424357414246" lon="30.861744165420532">
				<ele>51.130001068115234</ele>
				<time>2026-05-02T22:29:00Z</time>
			</trkpt>
			<trkpt lat="59.72940158843994" lon="30.86175310611725">
				<ele>52.040000915527344</ele>
				<time>2026-05-02T22:29:27Z</time>
			</trkpt>
			<trkpt lat="59.72944462299347" lon="30.861665964126587">
				<ele>52.869998931884766</ele>
				<time>2026-05-02T22:29:55Z</time>
			</trkpt>
			<trkpt lat="59.72944784164429" lon="30.86165964603424">
				<ele>52.91999816894531</ele>
				<time>2026-05-02T22:29:57Z</time>
			</trkpt>
			<trkpt lat="59.7294305562973" lon="30.861456394195557">
				<ele>53.36000061035156</ele>
				<time>2026-05-02T22:30:25Z</time>
			</trkpt>
			<trkpt lat="59.72943198680878" lon="30.86159586906433">
				<ele>54.27000045776367</ele>
				<time>2026-05-02T22:30:48Z</time>
			</trkpt>
			<trkpt lat="59.72942936420441" lon="30.8616042137146">
				<ele>53.97999954223633</ele>
				<time>2026-05-02T22:30:50Z</time>
			</trkpt>
			<trkpt lat="59.729475259780884" lon="30.861676335334778">
				<ele>54.33000183105469</ele>
				<time>2026-05-02T22:31:14Z</time>
			</trkpt>
			<trkpt lat="59.72953987121582" lon="30.861607909202576">
				<ele>55.869998931884766</ele>
				<time>2026-05-02T22:31:32Z</time>
			</trkpt>
			<trkpt lat="59.729514360427856" lon="30.861534118652344">
				<ele>55.810001373291016</ele>
				<time>2026-05-02T22:31:53Z</time>
			</trkpt>
			<trkpt lat="59.72940504550934" lon="30.861677765846252">
				<ele>56.849998474121094</ele>
				<time>2026-05-02T22:32:17Z</time>
			</trkpt>
			<trkpt lat="59.72947943210602" lon="30.861579418182373">
				<ele>57.7599983215332</ele>
				<time>2026-05-02T22:32:37Z</time>
			</trkpt>
			<trkpt lat="59.72963809967041" lon="30.86143398284912">
				<ele>58.77000045776367</ele>
				<time>2026-05-02T22:32:57Z</time>
			</trkpt>
			<trkpt lat="59.729835629463196" lon="30.861413717269897">
				<ele>59.869998931884766</ele>
				<time>2026-05-02T22:33:20Z</time>
			</trkpt>
			<trkpt lat="59.72998130321503" lon="30.861318349838257">
				<ele>60.61000061035156</ele>
				<time>2026-05-02T22:33:39Z</time>
			</trkpt>
			<trkpt lat="59.730104804039" lon="30.861327409744263">
				<ele>61.869998931884766</ele>
				<time>2026-05-02T22:33:59Z</time>
			</trkpt>
			<trkpt lat="59.73002231121063" lon="30.861405611038208">
				<ele>63.599998474121094</ele>
				<time>2026-05-02T22:34:21Z</time>
			</trkpt>
			<trkpt lat="59.730151414871216" lon="30.86133086681366">
				<ele>64.37999725341797</ele>
				<time>2026-05-02T22:34:40Z</time>
			</trkpt>
			<trkpt lat="59.730316162109375" lon="30.861286759376526">
				<ele>65.37000274658203</ele>
				<time>2026-05-02T22:34:57Z</time>
			</trkpt>
			<trkpt lat="59.73052513599396" lon="30.86123561859131">
				<ele>66.36000061035156</ele>
				<time>2026-05-02T22:35:18Z</time>
			</trkpt>
			<trkpt lat="59.7307745218277" lon="30.86122477054596">
				<ele>67.81999969482422</ele>
				<time>2026-05-02T22:35:40Z</time>
			</trkpt>
			<trkpt lat="59.730923533439636" lon="30.861151099205017">
				<ele>68.81999969482422</ele>
				<time>2026-05-02T22:36:00Z</time>
			</trkpt>
			<trkpt lat="59.73104214668274" lon="30.861210584640503">
				<ele>69.9000015258789</ele>
				<time>2026-05-02T22:36:18Z</time>
			</trkpt>
			<trkpt lat="59.73112332820892" lon="30.861194133758545">
				<ele>69.7300033569336</ele>
				<time>2026-05-02T22:36:26Z</time>
			</trkpt>
			<trkpt lat="59.73115634918213" lon="30.86117458343506">
				<ele>70.30999755859375</ele>
				<time>2026-05-02T22:36:30Z</time>
			</trkpt>
			<trkpt lat="59.73132586479187" lon="30.86117148399353">
				<ele>71.19999694824219</ele>
				<time>2026-05-02T22:36:51Z</time>
			</trkpt>
			<trkpt lat="59.73146390914917" lon="30.861146926879883">
				<ele>68.80000305175781</ele>
				<time>2026-05-02T22:37:08Z</time>
			</trkpt>
			<trkpt lat="59.73151195049286" lon="30.861135125160217">
				<ele>71.87000274658203</ele>
				<time>2026-05-02T22:37:13Z</time>
			</trkpt>
			<trkpt lat="59.73152184486389" lon="30.86113703250885">
				<ele>71.94000244140625</ele>
				<time>2026-05-02T22:37:14Z</time>
			</trkpt>
			<trkpt lat="59.73163020610809" lon="30.861101508140564">
				<ele>71.30000305175781</ele>
				<time>2026-05-02T22:37:33Z</time>
			</trkpt>
			<trkpt lat="59.731635093688965" lon="30.861058115959167">
				<ele>70.30999755859375</ele>
				<time>2026-05-02T22:37:56Z</time>
			</trkpt>
			<trkpt lat="59.73161256313324" lon="30.860958576202393">
				<ele>70.16000366210938</ele>
				<time>2026-05-02T22:37:59Z</time>
			</trkpt>
			<trkpt lat="59.73159158229828" lon="30.860899567604065">
				<ele>70.62999725341797</ele>
				<time>2026-05-02T22:38:30Z</time>
			</trkpt>
			<trkpt lat="59.7315788269043" lon="30.860906839370728">
				<ele>70.11000061035156</ele>
				<time>2026-05-02T22:38:33Z</time>
			</trkpt>
			<trkpt lat="59.73152530193329" lon="30.860865473747253">
				<ele>70.02999877929688</ele>
				<time>2026-05-02T22:38:37Z</time>
			</trkpt>
			<trkpt lat="59.73148453235626" lon="30.86078178882599">
				<ele>69.9800033569336</ele>
				<time>2026-05-02T22:38:41Z</time>
			</trkpt>
			<trkpt lat="59.731701374053955" lon="30.860885858535767">
				<ele>68.81999969482422</ele>
				<time>2026-05-02T22:39:01Z</time>
			</trkpt>
			<trkpt lat="59.73171603679657" lon="30.86089599132538">
				<ele>68.62999725341797</ele>
				<time>2026-05-02T22:39:02Z</time>
			</trkpt>
			<trkpt lat="59.731892228126526" lon="30.8609801530838">
				<ele>67.41000366210938</ele>
				<time>2026-05-02T22:39:19Z</time>
			</trkpt>
			<trkpt lat="59.731977701187134" lon="30.86103332042694">
				<ele>67.05999755859375</ele>
				<time>2026-05-02T22:39:34Z</time>
			</trkpt>
			<trkpt lat="59.73211884498596" lon="30.861016154289246">
				<ele>67.08999633789062</ele>
				<time>2026-05-02T22:39:52Z</time>
			</trkpt>
			<trkpt lat="59.73228061199188" lon="30.86104691028595">
				<ele>67.62000274658203</ele>
				<time>2026-05-02T22:40:11Z</time>
			</trkpt>
			<trkpt lat="59.732401847839355" lon="30.860981225967407">
				<ele>68.22000122070312</ele>
				<time>2026-05-02T22:40:27Z</time>
			</trkpt>
			<trkpt lat="59.73250067234039" lon="30.860941886901855">
				<ele>68.4000015258789</ele>
				<time>2026-05-02T22:40:40Z</time>
			</trkpt>
			<trkpt lat="59.73266041278839" lon="30.860875606536865">
				<ele>69.20999908447266</ele>
				<time>2026-05-02T22:40:57Z</time>
			</trkpt>
			<trkpt lat="59.73279297351837" lon="30.86085271835327">
				<ele>69.68000030517578</ele>
				<time>2026-05-02T22:41:08Z</time>
			</trkpt>
			<trkpt lat="59.732839584350586" lon="30.86079430580139">
				<ele>69.87000274658203</ele>
				<time>2026-05-02T22:41:15Z</time>
			</trkpt>
			<trkpt lat="59.73289239406586" lon="30.86079752445221">
				<ele>69.54000091552734</ele>
				<time>2026-05-02T22:41:23Z</time>
			</trkpt>
			<trkpt lat="59.73304033279419" lon="30.86073076725006">
				<ele>71.04000091552734</ele>
				<time>2026-05-02T22:41:44Z</time>
			</trkpt>
			<trkpt lat="59.73307955265045" lon="30.860636234283447">
				<ele>71.93000030517578</ele>
				<time>2026-05-02T22:42:01Z</time>
			</trkpt>
			<trkpt lat="59.73313653469086" lon="30.86051845550537">
				<ele>73.04000091552734</ele>
				<time>2026-05-02T22:42:20Z</time>
			</trkpt>
			<trkpt lat="59.733211398124695" lon="30.860583543777466">
				<ele>74.29000091552734</ele>
				<time>2026-05-02T22:42:38Z</time>
			</trkpt>
			<trkpt lat="59.73326814174652" lon="30.860679388046265">
				<ele>75.04000091552734</ele>
				<time>2026-05-02T22:42:57Z</time>
			</trkpt>
			<trkpt lat="59.73331844806671" lon="30.86086678504944">
				<ele>76.2300033569336</ele>
				<time>2026-05-02T22:43:19Z</time>
			</trkpt>
			<trkpt lat="59.73335301876068" lon="30.86096477508545">
				<ele>76.45999908447266</ele>
				<time>2026-05-02T22:43:35Z</time>
			</trkpt>
			<trkpt lat="59.73336124420166" lon="30.86094343662262">
				<ele>76.62999725341797</ele>
				<time>2026-05-02T22:43:36Z</time>
			</trkpt>
			<trkpt lat="59.733357667922974" lon="30.860950112342834">
				<ele>76.66999816894531</ele>
				<time>2026-05-02T22:43:37Z</time>
			</trkpt>
			<trkpt lat="59.73337137699127" lon="30.860943913459778">
				<ele>76.86000061035156</ele>
				<time>2026-05-02T22:43:50Z</time>
			</trkpt>
			<trkpt lat="59.733359932899475" lon="30.860861778259277">
				<ele>77.68000030517578</ele>
				<time>2026-05-02T22:44:17Z</time>
			</trkpt>
			<trkpt lat="59.73334181308746" lon="30.86075484752655">
				<ele>78.43000030517578</ele>
				<time>2026-05-02T22:44:43Z</time>
			</trkpt>
			<trkpt lat="59.73334288597107" lon="30.86075246334076">
				<ele>79.04000091552734</ele>
				<time>2026-05-02T22:45:04Z</time>
			</trkpt>
			<trkpt lat="59.7333550453186" lon="30.86079716682434">
				<ele>78.79000091552734</ele>
				<time>2026-05-02T22:45:27Z</time>
			</trkpt>
			<trkpt lat="59.7333482503891" lon="30.86081886291504">
				<ele>78.58000183105469</ele>
				<time>2026-05-02T22:45:53Z</time>
			</trkpt>
			<trkpt lat="59.733338356018066" lon="30.860804557800293">
				<ele>78.66000366210938</ele>
				<time>2026-05-02T22:46:22Z</time>
			</trkpt>
			<trkpt lat="59.73334562778473" lon="30.860845804214478">
				<ele>78.01000213623047</ele>
				<time>2026-05-02T22:46:55Z</time>
			</trkpt>
			<trkpt lat="59.73335373401642" lon="30.86073136329651">
				<ele>78.04000091552734</ele>
				<time>2026-05-02T22:47:21Z</time>
			</trkpt>
			<trkpt lat="59.733358502388" lon="30.860764265060425">
				<ele>77.38999938964844</ele>
				<time>2026-05-02T22:47:44Z</time>
			</trkpt>
			<trkpt lat="59.733402252197266" lon="30.860828399658203">
				<ele>76.63999938964844</ele>
				<time>2026-05-02T22:48:14Z</time>
			</trkpt>
			<trkpt lat="59.73338973522186" lon="30.86080038547516">
				<ele>76.16999816894531</ele>
				<time>2026-05-02T22:48:40Z</time>
			</trkpt>
			<trkpt lat="59.733373165130615" lon="30.86079168319702">
				<ele>75.5</ele>
				<time>2026-05-02T22:49:12Z</time>
			</trkpt>
			<trkpt lat="59.73339116573334" lon="30.860869765281677">
				<ele>74.83999633789062</ele>
				<time>2026-05-02T22:49:38Z</time>
			</trkpt>
			<trkpt lat="59.73343586921692" lon="30.860829830169678">
				<ele>71.76000213623047</ele>
				<time>2026-05-02T22:50:01Z</time>
			</trkpt>
			<trkpt lat="59.73349153995514" lon="30.860787630081177">
				<ele>69.0</ele>
				<time>2026-05-02T22:50:21Z</time>
			</trkpt>
			<trkpt lat="59.73366820812225" lon="30.860727190971375">
				<ele>66.8499984741211</ele>
				<time>2026-05-02T22:50:45Z</time>
			</trkpt>
			<trkpt lat="59.73381817340851" lon="30.860706567764282">
				<ele>66.3499984741211</ele>
				<time>2026-05-02T22:51:03Z</time>
			</trkpt>
			<trkpt lat="59.73405432701111" lon="30.860679268836975">
				<ele>66.12999725341797</ele>
				<time>2026-05-02T22:51:25Z</time>
			</trkpt>
			<trkpt lat="59.73423099517822" lon="30.860671997070312">
				<ele>66.86000061035156</ele>
				<time>2026-05-02T22:51:44Z</time>
			</trkpt>
			<trkpt lat="59.73433077335358" lon="30.86060357093811">
				<ele>66.94999694824219</ele>
				<time>2026-05-02T22:52:00Z</time>
			</trkpt>
			<trkpt lat="59.734445214271545" lon="30.86050248146057">
				<ele>67.30000305175781</ele>
				<time>2026-05-02T22:52:18Z</time>
			</trkpt>
			<trkpt lat="59.73449909687042" lon="30.86051344871521">
				<ele>67.25</ele>
				<time>2026-05-02T22:52:28Z</time>
			</trkpt>
			<trkpt lat="59.73450982570648" lon="30.860513925552368">
				<ele>67.3499984741211</ele>
				<time>2026-05-02T22:52:29Z</time>
			</trkpt>
			<trkpt lat="59.73464870452881" lon="30.860527276992798">
				<ele>67.7300033569336</ele>
				<time>2026-05-02T22:52:47Z</time>
			</trkpt>
			<trkpt lat="59.73478031158447" lon="30.860549569129944">
				<ele>67.72000122070312</ele>
				<time>2026-05-02T22:53:06Z</time>
			</trkpt>
			<trkpt lat="59.73490810394287" lon="30.860498905181885">
				<ele>67.19999694824219</ele>
				<time>2026-05-02T22:53:28Z</time>
			</trkpt>
			<trkpt lat="59.7350549697876" lon="30.860509037971497">
				<ele>67.43000030517578</ele>
				<time>2026-05-02T22:53:46Z</time>
			</trkpt>
			<trkpt lat="59.73520016670227" lon="30.860456943511963">
				<ele>68.22000122070312</ele>
				<time>2026-05-02T22:54:05Z</time>
			</trkpt>
			<trkpt lat="59.73528218269348" lon="30.860441088676453">
				<ele>68.73999786376953</ele>
				<time>2026-05-02T22:54:19Z</time>
			</trkpt>
			<trkpt lat="59.73533761501312" lon="30.860551118850708">
				<ele>69.18000030517578</ele>
				<time>2026-05-02T22:54:32Z</time>
			</trkpt>
			<trkpt lat="59.735416889190674" lon="30.860588550567627">
				<ele>69.01000213623047</ele>
				<time>2026-05-02T22:54:47Z</time>
			</trkpt>
			<trkpt lat="59.73546898365021" lon="30.860634803771973">
				<ele>69.41999816894531</ele>
				<time>2026-05-02T22:55:13Z</time>
			</trkpt>
			<trkpt lat="59.73549175262451" lon="30.860623836517334">
				<ele>69.91000366210938</ele>
				<time>2026-05-02T22:55:45Z</time>
			</trkpt>
			<trkpt lat="59.73547148704529" lon="30.86064076423645">
				<ele>70.33000183105469</ele>
				<time>2026-05-02T22:56:29Z</time>
			</trkpt>
			<trkpt lat="59.735456228256226" lon="30.860623836517334">
				<ele>70.31999969482422</ele>
				<time>2026-05-02T22:57:01Z</time>
			</trkpt>
			<trkpt lat="59.73541188240051" lon="30.86058485507965">
				<ele>70.6500015258789</ele>
				<time>2026-05-02T22:57:52Z</time>
			</trkpt>
			<trkpt lat="59.735413789749146" lon="30.86056697368622">
				<ele>70.27999877929688</ele>
				<time>2026-05-02T22:58:22Z</time>
			</trkpt>
			<trkpt lat="59.73542881011963" lon="30.860588669776917">
				<ele>69.8499984741211</ele>
				<time>2026-05-02T22:58:53Z</time>
			</trkpt>
			<trkpt lat="59.73539662361145" lon="30.860586166381836">
				<ele>69.51000213623047</ele>
				<time>2026-05-02T22:59:12Z</time>
			</trkpt>
			<trkpt lat="59.735440373420715" lon="30.860594511032104">
				<ele>66.45999908447266</ele>
				<time>2026-05-02T22:59:37Z</time>
			</trkpt>
			<trkpt lat="59.73553204536438" lon="30.860617637634277">
				<ele>65.29000091552734</ele>
				<time>2026-05-02T22:59:48Z</time>
			</trkpt>
			<trkpt lat="59.73567354679108" lon="30.86054503917694">
				<ele>64.19000244140625</ele>
				<time>2026-05-02T23:00:06Z</time>
			</trkpt>
			<trkpt lat="59.73578858375549" lon="30.860508799552917">
				<ele>64.12000274658203</ele>
				<time>2026-05-02T23:00:27Z</time>
			</trkpt>
			<trkpt lat="59.73589861392975" lon="30.86046600341797">
				<ele>64.05000305175781</ele>
				<time>2026-05-02T23:00:48Z</time>
			</trkpt>
			<trkpt lat="59.73586440086365" lon="30.860473155975342">
				<ele>64.52999877929688</ele>
				<time>2026-05-02T23:01:12Z</time>
			</trkpt>
			<trkpt lat="59.735809087753296" lon="30.86030948162079">
				<ele>64.9000015258789</ele>
				<time>2026-05-02T23:01:32Z</time>
			</trkpt>
			<trkpt lat="59.73578941822052" lon="30.860066175460815">
				<ele>65.5999984741211</ele>
				<time>2026-05-02T23:01:52Z</time>
			</trkpt>
			<trkpt lat="59.73576200008392" lon="30.85989737510681">
				<ele>66.12000274658203</ele>
				<time>2026-05-02T23:02:11Z</time>
			</trkpt>
			<trkpt lat="59.7357075214386" lon="30.85971176624298">
				<ele>66.63999938964844</ele>
				<time>2026-05-02T23:02:32Z</time>
			</trkpt>
			<trkpt lat="59.73563349246979" lon="30.85956621170044">
				<ele>67.30000305175781</ele>
				<time>2026-05-02T23:02:50Z</time>
			</trkpt>
			<trkpt lat="59.7355660200119" lon="30.85937762260437">
				<ele>68.47000122070312</ele>
				<time>2026-05-02T23:03:11Z</time>
			</trkpt>
			<trkpt lat="59.73553109169006" lon="30.859331011772156">
				<ele>69.37000274658203</ele>
				<time>2026-05-02T23:03:38Z</time>
			</trkpt>
			<trkpt lat="59.73551666736603" lon="30.8592609167099">
				<ele>70.0999984741211</ele>
				<time>2026-05-02T23:04:10Z</time>
			</trkpt>
			<trkpt lat="59.73550641536713" lon="30.85920011997223">
				<ele>70.4000015258789</ele>
				<time>2026-05-02T23:04:40Z</time>
			</trkpt>
			<trkpt lat="59.73550009727478" lon="30.859251618385315">
				<ele>70.29000091552734</ele>
				<time>2026-05-02T23:05:10Z</time>
			</trkpt>
			<trkpt lat="59.735581278800964" lon="30.85928475856781">
				<ele>69.97000122070312</ele>
				<time>2026-05-02T23:05:34Z</time>
			</trkpt>
			<trkpt lat="59.735684871673584" lon="30.85944640636444">
				<ele>70.0199966430664</ele>
				<time>2026-05-02T23:05:54Z</time>
			</trkpt>
			<trkpt lat="59.73578417301178" lon="30.859748363494873">
				<ele>70.29000091552734</ele>
				<time>2026-05-02T23:06:16Z</time>
			</trkpt>
			<trkpt lat="59.73579394817352" lon="30.85979914665222">
				<ele>70.5199966430664</ele>
				<time>2026-05-02T23:06:20Z</time>
			</trkpt>
			<trkpt lat="59.73584842681885" lon="30.859981536865234">
				<ele>70.8499984741211</ele>
				<time>2026-05-02T23:06:41Z</time>
			</trkpt>
			<trkpt lat="59.73581087589264" lon="30.860172271728516">
				<ele>71.06999969482422</ele>
				<time>2026-05-02T23:07:05Z</time>
			</trkpt>
			<trkpt lat="59.73584973812103" lon="30.86042630672455">
				<ele>71.19999694824219</ele>
				<time>2026-05-02T23:07:24Z</time>
			</trkpt>
			<trkpt lat="59.73599290847778" lon="30.860430002212524">
				<ele>71.63999938964844</ele>
				<time>2026-05-02T23:07:41Z</time>
			</trkpt>
			<trkpt lat="59.736146330833435" lon="30.860386967658997">
				<ele>72.2699966430664</ele>
				<time>2026-05-02T23:07:59Z</time>
			</trkpt>
			<trkpt lat="59.736390709877014" lon="30.860357880592346">
				<ele>73.0199966430664</ele>
				<time>2026-05-02T23:08:21Z</time>
			</trkpt>
			<trkpt lat="59.7365505695343" lon="30.860366582870483">
				<ele>73.69999694824219</ele>
				<time>2026-05-02T23:08:42Z</time>
			</trkpt>
			<trkpt lat="59.73668658733368" lon="30.86040496826172">
				<ele>74.7699966430664</ele>
				<time>2026-05-02T23:09:05Z</time>
			</trkpt>
			<trkpt lat="59.73681640625" lon="30.860476970672607">
				<ele>75.83000183105469</ele>
				<time>2026-05-02T23:09:24Z</time>
			</trkpt>
			<trkpt lat="59.736854672431946" lon="30.860504627227783">
				<ele>76.94000244140625</ele>
				<time>2026-05-02T23:09:45Z</time>
			</trkpt>
			<trkpt lat="59.73690342903137" lon="30.860503792762756">
				<ele>77.87999725341797</ele>
				<time>2026-05-02T23:10:04Z</time>
			</trkpt>
			<trkpt lat="59.73694360256195" lon="30.86051368713379">
				<ele>78.26000213623047</ele>
				<time>2026-05-02T23:10:28Z</time>
			</trkpt>
			<trkpt lat="59.73706126213074" lon="30.860427260398865">
				<ele>78.77999877929688</ele>
				<time>2026-05-02T23:10:50Z</time>
			</trkpt>
			<trkpt lat="59.73713147640228" lon="30.860379934310913">
				<ele>78.98999786376953</ele>
				<time>2026-05-02T23:11:09Z</time>
			</trkpt>
			<trkpt lat="59.737170934677124" lon="30.860387325286865">
				<ele>78.91000366210938</ele>
				<time>2026-05-02T23:11:21Z</time>
			</trkpt>
			<trkpt lat="59.73727881908417" lon="30.86044716835022">
				<ele>78.01000213623047</ele>
				<time>2026-05-02T23:11:40Z</time>
			</trkpt>
			<trkpt lat="59.73737812042236" lon="30.86051654815674">
				<ele>78.18000030517578</ele>
				<time>2026-05-02T23:11:56Z</time>
			</trkpt>
			<trkpt lat="59.73744857311249" lon="30.86060857772827">
				<ele>78.83999633789062</ele>
				<time>2026-05-02T23:12:19Z</time>
			</trkpt>
			<trkpt lat="59.73744213581085" lon="30.860559225082397">
				<ele>79.04000091552734</ele>
				<time>2026-05-02T23:12:54Z</time>
			</trkpt>
			<trkpt lat="59.73743438720703" lon="30.860525488853455">
				<ele>78.56999969482422</ele>
				<time>2026-05-02T23:13:20Z</time>
			</trkpt>
			<trkpt lat="59.73745083808899" lon="30.860411763191223">
				<ele>76.51000213623047</ele>
				<time>2026-05-02T23:13:42Z</time>
			</trkpt>
			<trkpt lat="59.73750877380371" lon="30.86040425300598">
				<ele>75.7300033569336</ele>
				<time>2026-05-02T23:14:03Z</time>
			</trkpt>
			<trkpt lat="59.73761034011841" lon="30.86030077934265">
				<ele>75.11000061035156</ele>
				<time>2026-05-02T23:14:20Z</time>
			</trkpt>
			<trkpt lat="59.73768949508667" lon="30.860087990760803">
				<ele>75.41000366210938</ele>
				<time>2026-05-02T23:14:40Z</time>
			</trkpt>
			<trkpt lat="59.73777937889099" lon="30.859849452972412">
				<ele>75.23999786376953</ele>
				<time>2026-05-02T23:15:02Z</time>
			</trkpt>
			<trkpt lat="59.73788833618164" lon="30.859641075134277">
				<ele>75.37999725341797</ele>
				<time>2026-05-02T23:15:20Z</time>
			</trkpt>
			<trkpt lat="59.73797380924225" lon="30.859481692314148">
				<ele>75.37999725341797</ele>
				<time>2026-05-02T23:15:32Z</time>
			</trkpt>
			<trkpt lat="59.73815619945526" lon="30.859317183494568">
				<ele>75.62999725341797</ele>
				<time>2026-05-02T23:15:52Z</time>
			</trkpt>
			<trkpt lat="59.738309025764465" lon="30.85927963256836">
				<ele>75.75</ele>
				<time>2026-05-02T23:16:08Z</time>
			</trkpt>
			<trkpt lat="59.738503098487854" lon="30.85910654067993">
				<ele>76.38999938964844</ele>
				<time>2026-05-02T23:16:32Z</time>
			</trkpt>
			<trkpt lat="59.73862147331238" lon="30.85903251171112">
				<ele>75.30000305175781</ele>
				<time>2026-05-02T23:16:50Z</time>
			</trkpt>
			<trkpt lat="59.73878765106201" lon="30.858975410461426">
				<ele>75.36000061035156</ele>
				<time>2026-05-02T23:17:06Z</time>
			</trkpt>
			<trkpt lat="59.738970041275024" lon="30.858948945999146">
				<ele>74.7300033569336</ele>
				<time>2026-05-02T23:17:22Z</time>
			</trkpt>
			<trkpt lat="59.73907434940338" lon="30.858904719352722">
				<ele>75.1500015258789</ele>
				<time>2026-05-02T23:17:45Z</time>
			</trkpt>
			<trkpt lat="59.739057540893555" lon="30.85880410671234">
				<ele>75.12000274658203</ele>
				<time>2026-05-02T23:18:14Z</time>
			</trkpt>
			<trkpt lat="59.73910462856293" lon="30.858901739120483">
				<ele>74.5199966430664</ele>
				<time>2026-05-02T23:18:33Z</time>
			</trkpt>
			<trkpt lat="59.739131808280945" lon="30.85895872116089">
				<ele>72.87999725341797</ele>
				<time>2026-05-02T23:18:59Z</time>
			</trkpt>
			<trkpt lat="59.73915243148804" lon="30.859023809432983">
				<ele>71.93000030517578</ele>
				<time>2026-05-02T23:19:29Z</time>
			</trkpt>
			<trkpt lat="59.73912227153778" lon="30.858981728553772">
				<ele>70.83999633789062</ele>
				<time>2026-05-02T23:19:53Z</time>
			</trkpt>
			<trkpt lat="59.73907208442688" lon="30.858891129493713">
				<ele>69.81999969482422</ele>
				<time>2026-05-02T23:20:21Z</time>
			</trkpt>
			<trkpt lat="59.73914837837219" lon="30.858886241912842">
				<ele>68.38999938964844</ele>
				<time>2026-05-02T23:20:44Z</time>
			</trkpt>
			<trkpt lat="59.739319920539856" lon="30.858933687210083">
				<ele>65.95999908447266</ele>
				<time>2026-05-02T23:21:06Z</time>
			</trkpt>
			<trkpt lat="59.73946714401245" lon="30.859074234962463">
				<ele>64.41000366210938</ele>
				<time>2026-05-02T23:21:24Z</time>
			</trkpt>
			<trkpt lat="59.73958396911621" lon="30.85934281349182">
				<ele>63.2400016784668</ele>
				<time>2026-05-02T23:21:44Z</time>
			</trkpt>
			<trkpt lat="59.73977267742157" lon="30.859429240226746">
				<ele>62.689998626708984</ele>
				<time>2026-05-02T23:22:04Z</time>
			</trkpt>
			<trkpt lat="59.73990452289581" lon="30.85950779914856">
				<ele>62.099998474121094</ele>
				<time>2026-05-02T23:22:23Z</time>
			</trkpt>
			<trkpt lat="59.74011468887329" lon="30.85957682132721">
				<ele>61.47999954223633</ele>
				<time>2026-05-02T23:22:45Z</time>
			</trkpt>
			<trkpt lat="59.74017405509949" lon="30.85968291759491">
				<ele>60.18000030517578</ele>
				<time>2026-05-02T23:23:07Z</time>
			</trkpt>
			<trkpt lat="59.74019968509674" lon="30.859766483306885">
				<ele>59.060001373291016</ele>
				<time>2026-05-02T23:23:30Z</time>
			</trkpt>
			<trkpt lat="59.740182280540466" lon="30.85970628261566">
				<ele>59.02000045776367</ele>
				<time>2026-05-02T23:23:57Z</time>
			</trkpt>
			<trkpt lat="59.74019682407379" lon="30.859609365463257">
				<ele>58.66999816894531</ele>
				<time>2026-05-02T23:24:18Z</time>
			</trkpt>
			<trkpt lat="59.74021136760712" lon="30.85957419872284">
				<ele>58.40999984741211</ele>
				<time>2026-05-02T23:24:52Z</time>
			</trkpt>
			<trkpt lat="59.74021816253662" lon="30.859525680541992">
				<ele>58.34000015258789</ele>
				<time>2026-05-02T23:25:19Z</time>
			</trkpt>
			<trkpt lat="59.740158677101135" lon="30.85965383052826">
				<ele>58.310001373291016</ele>
				<time>2026-05-02T23:25:48Z</time>
			</trkpt>
			<trkpt lat="59.740156054496765" lon="30.860010862350464">
				<ele>57.36000061035156</ele>
				<time>2026-05-02T23:26:07Z</time>
			</trkpt>
			<trkpt lat="59.740110993385315" lon="30.860384345054626">
				<ele>55.95000076293945</ele>
				<time>2026-05-02T23:26:27Z</time>
			</trkpt>
			<trkpt lat="59.740052342414856" lon="30.8606276512146">
				<ele>55.380001068115234</ele>
				<time>2026-05-02T23:26:39Z</time>
			</trkpt>
			<trkpt lat="59.7400016784668" lon="30.86115801334381">
				<ele>55.790000915527344</ele>
				<time>2026-05-02T23:27:02Z</time>
			</trkpt>
			<trkpt lat="59.74016773700714" lon="30.86139965057373">
				<ele>55.91999816894531</ele>
				<time>2026-05-02T23:27:24Z</time>
			</trkpt>
			<trkpt lat="59.740182638168335" lon="30.86180090904236">
				<ele>55.880001068115234</ele>
				<time>2026-05-02T23:27:44Z</time>
			</trkpt>
			<trkpt lat="59.740156173706055" lon="30.86196208000183">
				<ele>56.040000915527344</ele>
				<time>2026-05-02T23:28:07Z</time>
			</trkpt>
			<trkpt lat="59.7401647567749" lon="30.862196803092957">
				<ele>56.13999938964844</ele>
				<time>2026-05-02T23:28:27Z</time>
			</trkpt>
			<trkpt lat="59.74015033245087" lon="30.86243438720703">
				<ele>55.68000030517578</ele>
				<time>2026-05-02T23:28:50Z</time>
			</trkpt>
			<trkpt lat="59.74015808105469" lon="30.862488389015198">
				<ele>55.70000076293945</ele>
				<time>2026-05-02T23:29:00Z</time>
			</trkpt>
			<trkpt lat="59.74008822441101" lon="30.862660884857178">
				<ele>55.5</ele>
				<time>2026-05-02T23:29:20Z</time>
			</trkpt>
			<trkpt lat="59.740171670913696" lon="30.862897515296936">
				<ele>54.9900016784668</ele>
				<time>2026-05-02T23:29:43Z</time>
			</trkpt>
			<trkpt lat="59.740251421928406" lon="30.8632755279541">
				<ele>53.54999923706055</ele>
				<time>2026-05-02T23:30:06Z</time>
			</trkpt>
			<trkpt lat="59.740225315093994" lon="30.86347472667694">
				<ele>53.02000045776367</ele>
				<time>2026-05-02T23:30:30Z</time>
			</trkpt>
			<trkpt lat="59.74021756649017" lon="30.863545298576355">
				<ele>52.0099983215332</ele>
				<time>2026-05-02T23:31:02Z</time>
			</trkpt>
			<trkpt lat="59.74024295806885" lon="30.86358392238617">
				<ele>49.65999984741211</ele>
				<time>2026-05-02T23:31:20Z</time>
			</trkpt>
			<trkpt lat="59.74018931388855" lon="30.86355686187744">
				<ele>46.720001220703125</ele>
				<time>2026-05-02T23:31:54Z</time>
			</trkpt>
			<trkpt lat="59.74018442630768" lon="30.863560676574707">
				<ele>45.81999969482422</ele>
				<time>2026-05-02T23:32:10Z</time>
			</trkpt>
			<trkpt lat="59.74017536640167" lon="30.86364984512329">
				<ele>44.09000015258789</ele>
				<time>2026-05-02T23:32:37Z</time>
			</trkpt>
			<trkpt lat="59.74021089076996" lon="30.863539814949036">
				<ele>42.54999923706055</ele>
				<time>2026-05-02T23:33:09Z</time>
			</trkpt>
			<trkpt lat="59.74023616313934" lon="30.86355686187744">
				<ele>41.380001068115234</ele>
				<time>2026-05-02T23:33:37Z</time>
			</trkpt>
			<trkpt lat="59.74022996425629" lon="30.863439559936523">
				<ele>40.36000061035156</ele>
				<time>2026-05-02T23:33:57Z</time>
			</trkpt>
			<trkpt lat="59.74020493030548" lon="30.863396883010864">
				<ele>40.20000076293945</ele>
				<time>2026-05-02T23:34:00Z</time>
			</trkpt>
			<trkpt lat="59.74031400680542" lon="30.86326503753662">
				<ele>39.400001525878906</ele>
				<time>2026-05-02T23:34:30Z</time>
			</trkpt>
			<trkpt lat="59.74027478694916" lon="30.862938404083252">
				<ele>38.939998626708984</ele>
				<time>2026-05-02T23:34:51Z</time>
			</trkpt>
			<trkpt lat="59.740246653556824" lon="30.86279273033142">
				<ele>39.2400016784668</ele>
				<time>2026-05-02T23:35:00Z</time>
			</trkpt>
			<trkpt lat="59.74021244049072" lon="30.86263906955719">
				<ele>37.349998474121094</ele>
				<time>2026-05-02T23:35:25Z</time>
			</trkpt>
			<trkpt lat="59.74017810821533" lon="30.86264741420746">
				<ele>36.900001525878906</ele>
				<time>2026-05-02T23:35:32Z</time>
			</trkpt>
			<trkpt lat="59.740134477615356" lon="30.86263680458069">
				<ele>36.150001525878906</ele>
				<time>2026-05-02T23:35:59Z</time>
			</trkpt>
			<trkpt lat="59.74012911319733" lon="30.862640500068665">
				<ele>32.650001525878906</ele>
				<time>2026-05-02T23:36:20Z</time>
			</trkpt>
			<trkpt lat="59.74012649059296" lon="30.862632393836975">
				<ele>36.22999954223633</ele>
				<time>2026-05-02T23:36:22Z</time>
			</trkpt>
			<trkpt lat="59.74011933803558" lon="30.86262059211731">
				<ele>36.400001525878906</ele>
				<time>2026-05-02T23:36:23Z</time>
			</trkpt>
			<trkpt lat="59.740089654922485" lon="30.862560868263245">
				<ele>34.470001220703125</ele>
				<time>2026-05-02T23:36:58Z</time>
			</trkpt>
			<trkpt lat="59.740047097206116" lon="30.86246657371521">
				<ele>31.299999237060547</ele>
				<time>2026-05-02T23:37:19Z</time>
			</trkpt>
			<trkpt lat="59.74006712436676" lon="30.862420678138733">
				<ele>34.650001525878906</ele>
				<time>2026-05-02T23:37:22Z</time>
			</trkpt>
			<trkpt lat="59.740073561668396" lon="30.8624050617218">
				<ele>34.779998779296875</ele>
				<time>2026-05-02T23:37:23Z</time>
			</trkpt>
			<trkpt lat="59.74013948440552" lon="30.862254858016968">
				<ele>33.9900016784668</ele>
				<time>2026-05-02T23:37:44Z</time>
			</trkpt>
			<trkpt lat="59.74015021324158" lon="30.862244248390198">
				<ele>23.8799991607666</ele>
				<time>2026-05-02T23:38:28Z</time>
			</trkpt>
			<trkpt lat="59.740153670310974" lon="30.862247824668884">
				<ele>24.239999771118164</ele>
				<time>2026-05-02T23:38:29Z</time>
			</trkpt>
			<trkpt lat="59.7401442527771" lon="30.862282633781433">
				<ele>24.219999313354492</ele>
				<time>2026-05-02T23:39:06Z</time>
			</trkpt>
			<trkpt lat="59.7401522397995" lon="30.8622487783432">
				<ele>24.84000015258789</ele>
				<time>2026-05-02T23:40:04Z</time>
			</trkpt>
			<trkpt lat="59.740166425704956" lon="30.862196445465088">
				<ele>3.259999990463257</ele>
				<time>2026-05-02T23:40:10Z</time>
			</trkpt>
			<trkpt lat="59.740169286727905" lon="30.862181544303894">
				<ele>3.069999933242798</ele>
				<time>2026-05-02T23:40:11Z</time>
			</trkpt>
			<trkpt lat="59.740193367004395" lon="30.862059593200684">
				<ele>-0.11999999731779099</ele>
				<time>2026-05-02T23:40:19Z</time>
			</trkpt>
			<trkpt lat="59.74019646644592" lon="30.86204504966736">
				<ele>0.05999999865889549</ele>
				<time>2026-05-02T23:40:20Z</time>
			</trkpt>
			<trkpt lat="59.7402263879776" lon="30.86163091659546">
				<ele>-2.7200000286102295</ele>
				<time>2026-05-02T23:40:43Z</time>
			</trkpt>
			<trkpt lat="59.74011278152466" lon="30.861368775367737">
				<ele>-3.880000114440918</ele>
				<time>2026-05-02T23:41:05Z</time>
			</trkpt>
			<trkpt lat="59.740063190460205" lon="30.861117720603943">
				<ele>-4.190000057220459</ele>
				<time>2026-05-02T23:41:19Z</time>
			</trkpt>
			<trkpt lat="59.740052700042725" lon="30.860681295394897">
				<ele>-4.179999828338623</ele>
				<time>2026-05-02T23:41:33Z</time>
			</trkpt>
			<trkpt lat="59.740121245384216" lon="30.86042332649231">
				<ele>-3.869999885559082</ele>
				<time>2026-05-02T23:41:45Z</time>
			</trkpt>
			<trkpt lat="59.74016320705414" lon="30.860238194465637">
				<ele>-3.5299999713897705</ele>
				<time>2026-05-02T23:41:53Z</time>
			</trkpt>
			<trkpt lat="59.740217089653015" lon="30.85996675491333">
				<ele>-2.869999885559082</ele>
				<time>2026-05-02T23:42:05Z</time>
			</trkpt>
			<trkpt lat="59.74021625518799" lon="30.85970437526703">
				<ele>-1.7000000476837158</ele>
				<time>2026-05-02T23:42:20Z</time>
			</trkpt>
			<trkpt lat="59.74015009403229" lon="30.859679102897644">
				<ele>0.10000000149011612</ele>
				<time>2026-05-02T23:42:47Z</time>
			</trkpt>
			<trkpt lat="59.73996376991272" lon="30.859657406806946">
				<ele>1.4800000190734863</ele>
				<time>2026-05-02T23:43:12Z</time>
			</trkpt>
			<trkpt lat="59.739773631095886" lon="30.859540224075317">
				<ele>3.3399999141693115</ele>
				<time>2026-05-02T23:43:33Z</time>
			</trkpt>
			<trkpt lat="59.739601254463196" lon="30.859355688095093">
				<ele>5.429999828338623</ele>
				<time>2026-05-02T23:43:53Z</time>
			</trkpt>
			<trkpt lat="59.73941934108734" lon="30.859147787094116">
				<ele>7.889999866485596</ele>
				<time>2026-05-02T23:44:15Z</time>
			</trkpt>
			<trkpt lat="59.73916471004486" lon="30.8590989112854">
				<ele>10.729999542236328</ele>
				<time>2026-05-02T23:44:39Z</time>
			</trkpt>
			<trkpt lat="59.73892271518707" lon="30.859100580215454">
				<ele>13.40999984741211</ele>
				<time>2026-05-02T23:45:01Z</time>
			</trkpt>
			<trkpt lat="59.73864424228668" lon="30.85912799835205">
				<ele>16.139999389648438</ele>
				<time>2026-05-02T23:45:25Z</time>
			</trkpt>
			<trkpt lat="59.73843288421631" lon="30.859257698059082">
				<ele>18.59000015258789</ele>
				<time>2026-05-02T23:45:44Z</time>
			</trkpt>
			<trkpt lat="59.73825669288635" lon="30.859352827072144">
				<ele>21.25</ele>
				<time>2026-05-02T23:46:05Z</time>
			</trkpt>
			<trkpt lat="59.73803532123566" lon="30.859516501426697">
				<ele>24.290000915527344</ele>
				<time>2026-05-02T23:46:26Z</time>
			</trkpt>
			<trkpt lat="59.73780941963196" lon="30.85968244075775">
				<ele>26.6299991607666</ele>
				<time>2026-05-02T23:46:44Z</time>
			</trkpt>
			<trkpt lat="59.737751841545105" lon="30.859790802001953">
				<ele>27.8799991607666</ele>
				<time>2026-05-02T23:46:56Z</time>
			</trkpt>
			<trkpt lat="59.73767149448395" lon="30.86004638671875">
				<ele>30.170000076293945</ele>
				<time>2026-05-02T23:47:16Z</time>
			</trkpt>
			<trkpt lat="59.73755657672882" lon="30.860503554344177">
				<ele>32.869998931884766</ele>
				<time>2026-05-02T23:47:38Z</time>
			</trkpt>
			<trkpt lat="59.737398862838745" lon="30.860636472702026">
				<ele>35.84000015258789</ele>
				<time>2026-05-02T23:48:03Z</time>
			</trkpt>
			<trkpt lat="59.737345576286316" lon="30.86050581932068">
				<ele>37.04999923706055</ele>
				<time>2026-05-02T23:48:14Z</time>
			</trkpt>
			<trkpt lat="59.73729455471039" lon="30.86049222946167">
				<ele>37.77000045776367</ele>
				<time>2026-05-02T23:48:21Z</time>
			</trkpt>
			<trkpt lat="59.73715841770172" lon="30.86041569709778">
				<ele>40.45000076293945</ele>
				<time>2026-05-02T23:48:43Z</time>
			</trkpt>
			<trkpt lat="59.73704481124878" lon="30.86038315296173">
				<ele>42.310001373291016</ele>
				<time>2026-05-02T23:49:02Z</time>
			</trkpt>
			<trkpt lat="59.73694932460785" lon="30.86043381690979">
				<ele>44.75</ele>
				<time>2026-05-02T23:49:21Z</time>
			</trkpt>
			<trkpt lat="59.7369099855423" lon="30.860520482063293">
				<ele>45.90999984741211</ele>
				<time>2026-05-02T23:49:34Z</time>
			</trkpt>
			<trkpt lat="59.736817479133606" lon="30.860543966293335">
				<ele>48.25</ele>
				<time>2026-05-02T23:49:56Z</time>
			</trkpt>
			<trkpt lat="59.736793756484985" lon="30.86053454875946">
				<ele>48.97999954223633</ele>
				<time>2026-05-02T23:50:03Z</time>
			</trkpt>
			<trkpt lat="59.73667109012604" lon="30.860453844070435">
				<ele>51.150001525878906</ele>
				<time>2026-05-02T23:50:25Z</time>
			</trkpt>
			<trkpt lat="59.736634969711304" lon="30.860286355018616">
				<ele>52.93000030517578</ele>
				<time>2026-05-02T23:50:45Z</time>
			</trkpt>
			<trkpt lat="59.73657953739166" lon="30.860202074050903">
				<ele>54.869998931884766</ele>
				<time>2026-05-02T23:51:04Z</time>
			</trkpt>
			<trkpt lat="59.73655664920807" lon="30.859992265701294">
				<ele>56.52000045776367</ele>
				<time>2026-05-02T23:51:24Z</time>
			</trkpt>
			<trkpt lat="59.73656213283539" lon="30.85957145690918">
				<ele>58.43000030517578</ele>
				<time>2026-05-02T23:51:46Z</time>
			</trkpt>
			<trkpt lat="59.73651587963104" lon="30.859315037727356">
				<ele>60.310001373291016</ele>
				<time>2026-05-02T23:52:10Z</time>
			</trkpt>
			<trkpt lat="59.736541986465454" lon="30.859038710594177">
				<ele>61.77000045776367</ele>
				<time>2026-05-02T23:52:29Z</time>
			</trkpt>
			<trkpt lat="59.73655593395233" lon="30.8587384223938">
				<ele>63.2599983215332</ele>
				<time>2026-05-02T23:52:49Z</time>
			</trkpt>
			<trkpt lat="59.736586570739746" lon="30.858426690101624">
				<ele>65.02999877929688</ele>
				<time>2026-05-02T23:53:10Z</time>
			</trkpt>
			<trkpt lat="59.73653733730316" lon="30.858015418052673">
				<ele>66.69999694824219</ele>
				<time>2026-05-02T23:53:31Z</time>
			</trkpt>
			<trkpt lat="59.73652935028076" lon="30.857657194137573">
				<ele>68.13999938964844</ele>
				<time>2026-05-02T23:53:51Z</time>
			</trkpt>
			<trkpt lat="59.73653197288513" lon="30.857360005378723">
				<ele>69.5999984741211</ele>
				<time>2026-05-02T23:54:08Z</time>
			</trkpt>
			<trkpt lat="59.73651885986328" lon="30.85696852207184">
				<ele>71.16999816894531</ele>
				<time>2026-05-02T23:54:30Z</time>
			</trkpt>
			<trkpt lat="59.7365437746048" lon="30.856586456298828">
				<ele>73.06999969482422</ele>
				<time>2026-05-02T23:54:51Z</time>
			</trkpt>
			<trkpt lat="59.7365357875824" lon="30.856223583221436">
				<ele>73.97000122070312</ele>
				<time>2026-05-02T23:55:10Z</time>
			</trkpt>
			<trkpt lat="59.73650085926056" lon="30.855777621269226">
				<ele>74.97000122070312</ele>
				<time>2026-05-02T23:55:30Z</time>
			</trkpt>
			<trkpt lat="59.736525535583496" lon="30.85553765296936">
				<ele>75.55000305175781</ele>
				<time>2026-05-02T23:55:45Z</time>
			</trkpt>
			<trkpt lat="59.73651885986328" lon="30.855204939842224">
				<ele>76.22000122070312</ele>
				<time>2026-05-02T23:56:01Z</time>
			</trkpt>
			<trkpt lat="59.73653507232666" lon="30.854857921600342">
				<ele>76.8499984741211</ele>
				<time>2026-05-02T23:56:19Z</time>
			</trkpt>
			<trkpt lat="59.73646664619446" lon="30.85429608821869">
				<ele>77.25</ele>
				<time>2026-05-02T23:56:44Z</time>
			</trkpt>
			<trkpt lat="59.73651957511902" lon="30.853891134262085">
				<ele>77.26000213623047</ele>
				<time>2026-05-02T23:57:06Z</time>
			</trkpt>
			<trkpt lat="59.736555218696594" lon="30.853517174720764">
				<ele>77.13999938964844</ele>
				<time>2026-05-02T23:57:28Z</time>
			</trkpt>
			<trkpt lat="59.73655366897583" lon="30.853156566619873">
				<ele>76.77999877929688</ele>
				<time>2026-05-02T23:57:50Z</time>
			</trkpt>
			<trkpt lat="59.73655307292938" lon="30.8527272939682">
				<ele>76.70999908447266</ele>
				<time>2026-05-02T23:58:12Z</time>
			</trkpt>
			<trkpt lat="59.73656237125397" lon="30.852295994758606">
				<ele>76.7699966430664</ele>
				<time>2026-05-02T23:58:34Z</time>
			</trkpt>
			<trkpt lat="59.73665404319763" lon="30.851829767227173">
				<ele>75.93000030517578</ele>
				<time>2026-05-02T23:58:59Z</time>
			</trkpt>
			<trkpt lat="59.736692786216736" lon="30.851459741592407">
				<ele>74.91000366210938</ele>
				<time>2026-05-02T23:59:18Z</time>
			</trkpt>
			<trkpt lat="59.736618638038635" lon="30.851149082183838">
				<ele>74.19999694824219</ele>
				<time>2026-05-02T23:59:35Z</time>
			</trkpt>
			<trkpt lat="59.73652446269989" lon="30.850966572761536">
				<ele>73.58999633789062</ele>
				<time>2026-05-02T23:59:50Z</time>
			</trkpt>
			<trkpt lat="59.736512541770935" lon="30.85094690322876">
				<ele>73.55000305175781</ele>
				<time>2026-05-02T23:59:52Z</time>
			</trkpt>
			<trkpt lat="59.736491560935974" lon="30.850967526435852">
				<ele>73.1500015258789</ele>
				<time>2026-05-02T23:59:54Z</time>
			</trkpt>
			<trkpt lat="59.736520409584045" lon="30.850745916366577">
				<ele>72.19999694824219</ele>
				<time>2026-05-03T00:00:18Z</time>
			</trkpt>
			<trkpt lat="59.73651456832886" lon="30.8504558801651">
				<ele>71.19000244140625</ele>
				<time>2026-05-03T00:00:38Z</time>
			</trkpt>
			<trkpt lat="59.73655569553375" lon="30.850213885307312">
				<ele>70.62000274658203</ele>
				<time>2026-05-03T00:00:59Z</time>
			</trkpt>
			<trkpt lat="59.736565828323364" lon="30.84991955757141">
				<ele>69.63999938964844</ele>
				<time>2026-05-03T00:01:20Z</time>
			</trkpt>
			<trkpt lat="59.73656666278839" lon="30.849648237228394">
				<ele>67.48999786376953</ele>
				<time>2026-05-03T00:01:40Z</time>
			</trkpt>
			<trkpt lat="59.7366019487381" lon="30.849456548690796">
				<ele>65.7300033569336</ele>
				<time>2026-05-03T00:01:56Z</time>
			</trkpt>
			<trkpt lat="59.73658788204193" lon="30.84923815727234">
				<ele>65.12999725341797</ele>
				<time>2026-05-03T00:02:14Z</time>
			</trkpt>
			<trkpt lat="59.73653447628021" lon="30.849039793014526">
				<ele>64.94999694824219</ele>
				<time>2026-05-03T00:02:33Z</time>
			</trkpt>
			<trkpt lat="59.736475348472595" lon="30.84895646572113">
				<ele>64.12999725341797</ele>
				<time>2026-05-03T00:02:54Z</time>
			</trkpt>
			<trkpt lat="59.73651099205017" lon="30.848752856254578">
				<ele>63.380001068115234</ele>
				<time>2026-05-03T00:03:14Z</time>
			</trkpt>
			<trkpt lat="59.7364798784256" lon="30.848578929901123">
				<ele>62.83000183105469</ele>
				<time>2026-05-03T00:03:35Z</time>
			</trkpt>
			<trkpt lat="59.73642563819885" lon="30.84844160079956">
				<ele>62.2599983215332</ele>
				<time>2026-05-03T00:03:57Z</time>
			</trkpt>
			<trkpt lat="59.73641812801361" lon="30.848437428474426">
				<ele>61.86000061035156</ele>
				<time>2026-05-03T00:04:23Z</time>
			</trkpt>
			<trkpt lat="59.736401081085205" lon="30.848459601402283">
				<ele>60.86000061035156</ele>
				<time>2026-05-03T00:04:47Z</time>
			</trkpt>
			<trkpt lat="59.73641228675842" lon="30.848522305488586">
				<ele>58.209999084472656</ele>
				<time>2026-05-03T00:05:14Z</time>
			</trkpt>
			<trkpt lat="59.736382246017456" lon="30.848469614982605">
				<ele>57.04999923706055</ele>
				<time>2026-05-03T00:05:34Z</time>
			</trkpt>
			<trkpt lat="59.73638153076172" lon="30.848403453826904">
				<ele>58.529998779296875</ele>
				<time>2026-05-03T00:06:08Z</time>
			</trkpt>
			<trkpt lat="59.736364245414734" lon="30.848411083221436">
				<ele>60.5099983215332</ele>
				<time>2026-05-03T00:06:27Z</time>
			</trkpt>
			<trkpt lat="59.73636448383331" lon="30.84833562374115">
				<ele>60.38999938964844</ele>
				<time>2026-05-03T00:06:32Z</time>
			</trkpt>
			<trkpt lat="59.73637115955353" lon="30.84826898574829">
				<ele>62.349998474121094</ele>
				<time>2026-05-03T00:06:35Z</time>
			</trkpt>
			<trkpt lat="59.736411929130554" lon="30.84796667098999">
				<ele>60.630001068115234</ele>
				<time>2026-05-03T00:06:51Z</time>
			</trkpt>
			<trkpt lat="59.736472964286804" lon="30.847612857818604">
				<ele>61.38999938964844</ele>
				<time>2026-05-03T00:07:09Z</time>
			</trkpt>
			<trkpt lat="59.736446380615234" lon="30.84719216823578">
				<ele>62.43000030517578</ele>
				<time>2026-05-03T00:07:24Z</time>
			</trkpt>
			<trkpt lat="59.73647725582123" lon="30.846844911575317">
				<ele>62.650001525878906</ele>
				<time>2026-05-03T00:07:39Z</time>
			</trkpt>
			<trkpt lat="59.73647916316986" lon="30.84682548046112">
				<ele>62.22999954223633</ele>
				<time>2026-05-03T00:07:40Z</time>
			</trkpt>
			<trkpt lat="59.73647463321686" lon="30.846680283546448">
				<ele>63.279998779296875</ele>
				<time>2026-05-03T00:07:45Z</time>
			</trkpt>
			<trkpt lat="59.736475706100464" lon="30.846262335777283">
				<ele>63.900001525878906</ele>
				<time>2026-05-03T00:08:02Z</time>
			</trkpt>
			<trkpt lat="59.73648691177368" lon="30.845929384231567">
				<ele>64.47000122070312</ele>
				<time>2026-05-03T00:08:15Z</time>
			</trkpt>
			<trkpt lat="59.73648381233215" lon="30.84565794467926">
				<ele>65.22000122070312</ele>
				<time>2026-05-03T00:08:26Z</time>
			</trkpt>
			<trkpt lat="59.7365026473999" lon="30.84522557258606">
				<ele>65.93000030517578</ele>
				<time>2026-05-03T00:08:43Z</time>
			</trkpt>
			<trkpt lat="59.73651468753815" lon="30.845059156417847">
				<ele>66.30999755859375</ele>
				<time>2026-05-03T00:08:50Z</time>
			</trkpt>
			<trkpt lat="59.736523509025574" lon="30.845017313957214">
				<ele>66.48999786376953</ele>
				<time>2026-05-03T00:08:52Z</time>
			</trkpt>
			<trkpt lat="59.73653054237366" lon="30.84476327896118">
				<ele>66.75</ele>
				<time>2026-05-03T00:09:03Z</time>
			</trkpt>
			<trkpt lat="59.73652124404907" lon="30.8444766998291">
				<ele>67.87999725341797</ele>
				<time>2026-05-03T00:09:17Z</time>
			</trkpt>
			<trkpt lat="59.736528277397156" lon="30.844472646713257">
				<ele>69.56999969482422</ele>
				<time>2026-05-03T00:09:24Z</time>
			</trkpt>
			<trkpt lat="59.73651719093323" lon="30.844412922859192">
				<ele>69.38999938964844</ele>
				<time>2026-05-03T00:09:50Z</time>
			</trkpt>
			<trkpt lat="59.736560225486755" lon="30.844434022903442">
				<ele>69.56999969482422</ele>
				<time>2026-05-03T00:10:17Z</time>
			</trkpt>
			<trkpt lat="59.73658299446106" lon="30.84439778327942">
				<ele>70.33000183105469</ele>
				<time>2026-05-03T00:10:37Z</time>
			</trkpt>
			<trkpt lat="59.736581683158875" lon="30.84440290927887">
				<ele>70.36000061035156</ele>
				<time>2026-05-03T00:10:38Z</time>
			</trkpt>
			<trkpt lat="59.73658835887909" lon="30.84441328048706">
				<ele>68.62000274658203</ele>
				<time>2026-05-03T00:10:42Z</time>
			</trkpt>
			<trkpt lat="59.73660957813263" lon="30.8444344997406">
				<ele>68.94999694824219</ele>
				<time>2026-05-03T00:11:05Z</time>
			</trkpt>
			<trkpt lat="59.73658502101898" lon="30.84438145160675">
				<ele>67.83000183105469</ele>
				<time>2026-05-03T00:11:29Z</time>
			</trkpt>
		</trkseg>
	</trk>
</gpx>
